Time;durP1;ratioP1;P1;durP2;ratioP2;P2;SDS_P1;SDS_P2;PMS_P1;PMS_P2;Temp;Humidity;BMP_temperature;BMP_pressure;BME280_temperature;BME280_humidity;BME280_pressure;Samples;Min_cycle;Max_cycle;Signal;HPM_P1;HPM_P2
2023/10/02 00:00:19;;;;;;;23.48;10.95;;;15.10;97.20;;;;;;5055903;28;20044;-71
2023/10/02 00:02:45;;;;;;;23.63;11.23;;;15.10;97.00;;;;;;5064085;28;20408;-72
2023/10/02 00:05:11;;;;;;;19.52;10.60;;;15.10;97.20;;;;;;5070567;28;20775;-72
2023/10/02 00:07:42;;;;;;;24.20;10.13;;;15.20;97.00;;;;;;5051910;28;20032;-72
2023/10/02 00:10:11;;;;;;;27.92;11.55;;;15.20;97.00;;;;;;5068571;28;20257;-72
2023/10/02 00:12:37;;;;;;;22.17;9.70;;;15.20;97.00;;;;;;5052731;28;20058;-73
2023/10/02 00:15:12;;;;;;;17.15;9.40;;;15.20;97.00;;;;;;5063851;28;20028;-72
2023/10/02 00:17:43;;;;;;;21.38;9.80;;;15.20;96.80;;;;;;5056254;28;20148;-73
2023/10/02 00:20:21;;;;;;;22.33;9.90;;;15.30;96.50;;;;;;5065947;28;21099;-73
2023/10/02 00:22:47;;;;;;;21.00;10.40;;;15.40;96.50;;;;;;5055800;28;20055;-72
2023/10/02 00:25:19;;;;;;;18.42;9.68;;;15.40;96.40;;;;;;5076116;28;20032;-73
2023/10/02 00:27:46;;;;;;;23.65;9.50;;;15.40;96.20;;;;;;5049424;28;20035;-72
2023/10/02 00:30:13;;;;;;;25.27;10.15;;;15.40;96.40;;;;;;5069217;28;20069;-72
2023/10/02 00:32:41;;;;;;;18.70;9.68;;;15.50;96.50;;;;;;5055127;28;20035;-72
2023/10/02 00:35:11;;;;;;;18.60;10.00;;;15.50;96.40;;;;;;5066711;28;20757;-72
2023/10/02 00:37:47;;;;;;;16.58;9.45;;;15.60;96.20;;;;;;5056306;28;20036;-72
2023/10/02 00:40:23;;;;;;;19.73;9.48;;;15.60;96.00;;;;;;5063737;28;20078;-72
2023/10/02 00:42:56;;;;;;;24.23;10.75;;;15.60;95.80;;;;;;5053905;28;20036;-73
2023/10/02 00:45:23;;;;;;;19.33;10.40;;;15.60;95.90;;;;;;5070147;28;20032;-72
2023/10/02 00:47:50;;;;;;;21.63;12.40;;;15.60;96.10;;;;;;5052219;28;20025;-73
2023/10/02 00:50:17;;;;;;;21.33;11.70;;;15.60;96.20;;;;;;5068614;28;20024;-73
2023/10/02 00:52:43;;;;;;;27.10;13.18;;;15.60;96.30;;;;;;5058359;28;20032;-73
2023/10/02 00:55:14;;;;;;;19.67;11.90;;;15.70;96.50;;;;;;5071887;28;20020;-73
2023/10/02 00:57:41;;;;;;;24.38;12.50;;;15.70;96.40;;;;;;5058053;28;20048;-72
2023/10/02 01:00:17;;;;;;;22.50;11.57;;;15.70;96.50;;;;;;5064309;28;20032;-72
2023/10/02 01:02:45;;;;;;;31.70;13.13;;;15.80;96.40;;;;;;5052911;28;20081;-73
2023/10/02 01:05:16;;;;;;;19.33;11.77;;;15.70;96.60;;;;;;5068979;28;20421;-72
2023/10/02 01:07:44;;;;;;;28.67;14.35;;;15.80;96.40;;;;;;5049849;28;20043;-72
2023/10/02 01:10:17;;;;;;;28.25;15.00;;;15.70;96.60;;;;;;5067917;28;20036;-72
2023/10/02 01:12:49;;;;;;;21.90;12.23;;;15.70;96.80;;;;;;5060335;28;20073;-72
2023/10/02 01:15:19;;;;;;;21.15;12.60;;;15.80;96.80;;;;;;5066308;28;20037;-72
2023/10/02 01:17:47;;;;;;;19.30;12.45;;;15.80;96.50;;;;;;5074085;28;20062;-73
2023/10/02 01:20:21;;;;;;;23.13;13.07;;;15.80;96.10;;;;;;5056014;28;20054;-73
2023/10/02 01:22:52;;;;;;;18.80;12.55;;;15.90;96.20;;;;;;5066345;28;20284;-73
2023/10/02 01:25:23;;;;;;;19.83;11.93;;;15.90;96.30;;;;;;5059607;28;20068;-72
2023/10/02 01:27:51;;;;;;;19.90;11.98;;;15.90;96.20;;;;;;5066973;28;20036;-72
2023/10/02 01:30:20;;;;;;;20.92;11.88;;;15.90;96.00;;;;;;5061213;28;20074;-72
2023/10/02 01:33:06;;;;;;;19.65;11.70;;;15.90;95.90;;;;;;5071702;28;20028;-72
2023/10/02 01:35:39;;;;;;;19.88;11.35;;;15.80;96.00;;;;;;5056162;28;20032;-73
2023/10/02 01:38:15;;;;;;;23.63;11.52;;;15.90;96.00;;;;;;5074676;28;20032;-73
2023/10/02 01:40:53;;;;;;;20.38;11.45;;;15.90;95.90;;;;;;5053060;28;20032;-73
2023/10/02 01:43:23;;;;;;;20.30;10.87;;;15.90;95.70;;;;;;5073260;28;20060;-74
2023/10/02 01:45:48;;;;;;;;;;;15.80;96.00;;;;;;5058391;28;20298;-73
2023/10/02 01:48:36;;;;;;;20.25;11.50;;;15.80;96.30;;;;;;5062147;28;19920;-73
2023/10/02 01:51:37;;;;;;;18.52;12.25;;;15.80;96.20;;;;;;5059799;28;20119;-72
2023/10/02 01:53:55;;;;;;;23.10;12.88;;;15.80;96.50;;;;;;5070254;28;20040;-73
2023/10/02 01:56:23;;;;;;;22.23;12.55;;;15.90;96.50;;;;;;5057447;28;20122;-73
2023/10/02 01:58:50;;;;;;;18.52;12.30;;;16.00;96.50;;;;;;5070905;28;20032;-73
2023/10/02 02:01:17;;;;;;;20.95;11.60;;;16.10;96.40;;;;;;5051210;28;20437;-74
2023/10/02 02:03:48;;;;;;;18.92;11.60;;;16.20;96.00;;;;;;5066212;28;20522;-73
2023/10/02 02:06:20;;;;;;;22.15;12.18;;;16.20;95.80;;;;;;5061543;28;20033;-73
2023/10/02 02:08:53;;;;;;;17.10;11.02;;;16.30;95.70;;;;;;5060862;28;20036;-73
2023/10/02 02:11:21;;;;;;;20.10;11.05;;;16.20;95.50;;;;;;5058267;28;20078;-73
2023/10/02 02:13:49;;;;;;;16.42;10.48;;;16.20;95.60;;;;;;5062351;28;20051;-73
2023/10/02 02:16:21;;;;;;;20.98;11.55;;;16.20;95.70;;;;;;5051801;28;20035;-73
2023/10/02 02:18:50;;;;;;;19.10;10.65;;;16.20;95.70;;;;;;5067728;28;20042;-72
2023/10/02 02:21:18;;;;;;;14.40;9.40;;;16.20;95.70;;;;;;5053830;28;20029;-72
2023/10/02 02:23:45;;;;;;;19.80;10.60;;;16.20;95.70;;;;;;5074719;28;20042;-72
2023/10/02 02:26:20;;;;;;;18.15;11.00;;;16.30;95.50;;;;;;5060521;28;20036;-73
2023/10/02 02:28:47;;;;;;;15.00;9.68;;;16.30;95.40;;;;;;5063514;28;20032;-72
2023/10/02 02:31:29;;;;;;;17.63;9.27;;;16.30;95.40;;;;;;5057923;28;20308;-72
2023/10/02 02:34:01;;;;;;;17.70;10.73;;;16.20;95.50;;;;;;5071257;28;20041;-73
2023/10/02 02:36:28;;;;;;;18.63;11.10;;;16.30;95.60;;;;;;5056258;28;20134;-73
2023/10/02 02:39:15;;;;;;;14.98;9.73;;;16.40;95.60;;;;;;5076155;28;20036;-73
2023/10/02 02:41:43;;;;;;;17.17;10.70;;;16.40;95.40;;;;;;5051545;28;20036;-73
2023/10/02 02:44:29;;;;;;;18.05;10.18;;;16.40;95.30;;;;;;5071302;28;20036;-73
2023/10/02 02:46:55;;;;;;;18.15;11.38;;;16.40;95.40;;;;;;5056852;28;20027;-73
2023/10/02 02:49:23;;;;;;;18.05;10.63;;;16.40;95.20;;;;;;5065204;28;20037;-73
2023/10/02 02:51:48;;;;;;;15.15;10.40;;;16.40;95.40;;;;;;5060448;28;20058;-73
2023/10/02 02:54:15;;;;;;;15.25;10.27;;;16.40;95.20;;;;;;5067780;28;20032;-72
2023/10/02 02:56:41;;;;;;;19.27;10.98;;;16.50;95.30;;;;;;5055786;28;20050;-73
2023/10/02 02:59:08;;;;;;;20.77;11.18;;;16.50;95.20;;;;;;5072169;28;20494;-72
2023/10/02 03:01:34;;;;;;;22.20;11.57;;;16.50;95.40;;;;;;5048688;28;20611;-73
2023/10/02 03:04:11;;;;;;;19.92;11.73;;;16.50;95.40;;;;;;5071371;28;20025;-74
2023/10/02 03:06:37;;;;;;;18.73;11.55;;;16.50;95.60;;;;;;5063307;28;20036;-73
2023/10/02 03:09:05;;;;;;;20.33;11.57;;;16.60;95.50;;;;;;5071948;28;20036;-73
2023/10/02 03:11:32;;;;;;;17.48;11.18;;;16.70;95.30;;;;;;5072042;28;20039;-73
2023/10/02 03:14:14;;;;;;;22.52;10.65;;;16.70;95.20;;;;;;5057838;28;20064;-73
2023/10/02 03:16:44;;;;;;;17.75;10.40;;;16.70;95.10;;;;;;5067737;28;20032;-73
2023/10/02 03:19:13;;;;;;;16.75;9.38;;;16.70;95.20;;;;;;5056543;28;20083;-73
2023/10/02 03:21:42;;;;;;;18.77;10.25;;;16.70;95.20;;;;;;5065988;28;20365;-73
2023/10/02 03:24:08;;;;;;;15.40;9.57;;;16.70;95.10;;;;;;5055519;28;20036;-74
2023/10/02 03:29:02;;;;;;;17.73;9.15;;;16.80;95.00;;;;;;5053875;28;20045;-74
2023/10/02 03:31:35;;;;;;;16.10;9.23;;;16.80;94.90;;;;;;5069330;28;21098;-71
2023/10/02 03:34:25;;;;;;;18.55;9.88;;;16.90;94.90;;;;;;5052628;28;20044;-74
2023/10/02 03:36:51;;;;;;;14.50;9.27;;;16.80;94.80;;;;;;5070553;28;20089;-73
2023/10/02 03:39:51;;;;;;;15.20;9.57;;;16.90;94.80;;;;;;5060628;28;20115;-74
2023/10/02 03:42:03;;;;;;;13.27;8.75;;;16.80;94.90;;;;;;5068230;28;20119;-73
2023/10/02 03:44:29;;;;;;;15.50;9.80;;;16.80;94.80;;;;;;5058611;28;20086;-74
2023/10/02 03:46:59;;;;;;;15.30;8.60;;;16.80;94.90;;;;;;5071313;28;20036;-73
2023/10/02 03:49:25;;;;;;;14.18;8.60;;;16.80;95.00;;;;;;5052234;28;20036;-73
2023/10/02 03:51:50;;;;;;;13.68;7.82;;;16.80;95.00;;;;;;5070525;28;20024;-74
2023/10/02 03:54:17;;;;;;;13.52;9.15;;;16.80;94.90;;;;;;5053212;28;20039;-73
2023/10/02 03:56:47;;;;;;;14.85;8.00;;;16.80;95.00;;;;;;5072680;28;20032;-74
2023/10/02 03:59:17;;;;;;;14.77;8.70;;;16.70;95.10;;;;;;5060865;28;20743;-74
2023/10/02 04:01:42;;;;;;;15.55;8.40;;;16.70;95.00;;;;;;5065219;28;20173;-74
2023/10/02 04:04:24;;;;;;;12.30;7.50;;;16.70;95.10;;;;;;5041037;28;20036;-73
2023/10/02 04:06:53;;;;;;;15.40;8.52;;;16.70;95.20;;;;;;5067602;28;20092;-72
2023/10/02 04:09:21;;;;;;;14.93;7.63;;;16.70;95.30;;;;;;5048834;28;20137;-72
2023/10/02 04:11:50;;;;;;;15.02;7.85;;;16.70;95.20;;;;;;5053650;28;20036;-74
2023/10/02 04:14:17;;;;;;;12.57;8.20;;;16.70;95.30;;;;;;5055739;28;20039;-72
2023/10/02 04:16:46;;;;;;;18.33;9.18;;;16.70;95.20;;;;;;5068700;28;20054;-73
2023/10/02 04:19:15;;;;;;;13.77;8.20;;;16.60;95.30;;;;;;5056120;28;20048;-73
2023/10/02 04:21:42;;;;;;;14.65;8.43;;;16.60;95.40;;;;;;5064316;28;20065;-74
2023/10/02 04:24:09;;;;;;;12.55;8.32;;;16.60;95.40;;;;;;5056278;28;20528;-72
2023/10/02 04:26:36;;;;;;;16.80;8.40;;;16.50;95.40;;;;;;5069921;28;20171;-73
2023/10/02 04:29:13;;;;;;;13.13;8.15;;;16.50;95.40;;;;;;5065853;28;20066;-73
2023/10/02 04:31:44;;;;;;;14.10;8.23;;;16.50;95.40;;;;;;5069575;28;20032;-73
2023/10/02 04:36:34;;;;;;;15.15;9.02;;;16.50;95.40;;;;;;5070922;28;20035;-73
2023/10/02 04:36:57;;;;;;;15.48;8.38;;;16.50;95.40;;;;;;5069770;28;20044;-72
2023/10/02 04:42:15;;;;;;;15.40;9.00;;;16.50;95.40;;;;;;5063643;28;20040;-73
2023/10/02 04:44:44;;;;;;;13.10;8.40;;;16.50;95.40;;;;;;5069583;28;20123;-72
2023/10/02 04:47:17;;;;;;;14.82;8.35;;;16.50;95.40;;;;;;5068319;28;20067;-72
2023/10/02 04:50:34;;;;;;;14.35;8.20;;;16.50;95.50;;;;;;5069211;28;20431;-73
2023/10/02 04:53:35;;;;;;;12.48;7.85;;;16.60;95.50;;;;;;5071544;28;20063;-73
2023/10/02 04:55:23;;;;;;;14.57;8.52;;;16.60;95.40;;;;;;5054867;28;20033;-73
2023/10/02 04:57:54;;;;;;;12.65;8.60;;;16.70;95.40;;;;;;5074331;28;20381;-72
2023/10/02 05:00:38;;;;;;;15.80;9.45;;;16.70;95.40;;;;;;5061161;28;20622;-73
2023/10/02 05:03:09;;;;;;;12.32;8.00;;;16.70;95.50;;;;;;5069612;28;20036;-73
2023/10/02 05:05:42;;;;;;;14.38;9.38;;;16.80;95.30;;;;;;5062100;28;20033;-73
2023/10/02 05:08:18;;;;;;;16.88;9.25;;;16.70;95.20;;;;;;5069453;28;20036;-73
2023/10/02 05:10:47;;;;;;;17.98;10.30;;;16.70;95.20;;;;;;5055408;28;20085;-73
2023/10/02 05:13:13;;;;;;;19.90;10.40;;;16.70;95.30;;;;;;5071146;28;20148;-72
2023/10/02 05:16:06;;;;;;;18.05;10.45;;;16.60;95.30;;;;;;5069964;28;20050;-72
2023/10/02 05:18:25;;;;;;;21.85;10.50;;;16.60;95.50;;;;;;5071302;28;20036;-73
2023/10/02 05:20:53;;;;;;;20.80;11.27;;;16.50;95.50;;;;;;5073810;28;21110;-74
2023/10/02 05:23:21;;;;;;;20.40;10.77;;;16.50;95.60;;;;;;5063320;28;20441;-73
2023/10/02 05:25:47;;;;;;;15.65;10.57;;;16.50;95.60;;;;;;5071855;28;20028;-73
2023/10/02 05:28:14;;;;;;;20.17;11.43;;;16.50;95.50;;;;;;5052052;28;20117;-73
2023/10/02 05:30:43;;;;;;;20.10;10.63;;;16.60;95.50;;;;;;5070125;28;20028;-74
2023/10/02 05:33:09;;;;;;;20.65;10.52;;;16.70;95.50;;;;;;5062998;28;21008;-73
2023/10/02 05:35:45;;;;;;;23.85;11.63;;;16.70;95.20;;;;;;5069292;28;20040;-73
2023/10/02 05:38:16;;;;;;;19.42;10.43;;;16.60;95.20;;;;;;5062435;28;20032;-73
2023/10/02 05:40:47;;;;;;;19.65;10.93;;;16.70;95.30;;;;;;5074371;28;20495;-73
2023/10/02 05:43:21;;;;;;;19.52;11.60;;;16.70;95.20;;;;;;5054138;28;20393;-73
2023/10/02 05:45:47;;;;;;;18.50;11.15;;;16.70;95.10;;;;;;5073023;28;20040;-74
2023/10/02 05:48:15;;;;;;;17.05;10.20;;;16.70;95.20;;;;;;5049872;28;20032;-73
2023/10/02 05:50:48;;;;;;;19.85;10.55;;;16.70;95.20;;;;;;5072706;28;20039;-74
2023/10/02 05:53:15;;;;;;;17.70;10.40;;;16.70;95.10;;;;;;5060244;28;20029;-73
2023/10/02 05:56:04;;;;;;;19.55;10.77;;;16.80;95.10;;;;;;5058126;28;20036;-73
2023/10/02 05:58:31;;;;;;;17.05;10.95;;;16.90;94.90;;;;;;5046557;28;20036;-73
2023/10/02 06:01:01;;;;;;;20.02;9.73;;;17.00;94.80;;;;;;5064861;28;20044;-73
2023/10/02 06:03:29;;;;;;;14.50;9.15;;;17.00;94.60;;;;;;5037793;28;20196;-72
2023/10/02 06:06:15;;;;;;;14.48;9.30;;;17.10;94.40;;;;;;5068969;28;20042;-73
2023/10/02 06:08:41;;;;;;;18.77;9.50;;;17.10;94.30;;;;;;5050962;28;20090;-73
2023/10/02 06:11:59;;;;;;;13.60;9.40;;;17.20;94.30;;;;;;5045079;28;20302;-73
2023/10/02 06:13:56;;;;;;;16.55;9.20;;;17.20;94.10;;;;;;5051066;28;20163;-72
2023/10/02 06:16:26;;;;;;;17.13;9.02;;;17.20;94.10;;;;;;5065018;28;20139;-73
2023/10/02 06:19:00;;;;;;;17.15;9.95;;;17.30;94.00;;;;;;5055212;28;20587;-72
2023/10/02 06:21:28;;;;;;;14.38;9.30;;;17.30;94.00;;;;;;5062309;28;20056;-73
2023/10/02 06:23:56;;;;;;;14.35;9.65;;;17.30;94.00;;;;;;5049899;28;20043;-72
2023/10/02 06:26:29;;;;;;;18.70;9.85;;;17.30;93.90;;;;;;5068155;28;20753;-73
2023/10/02 06:29:16;;;;;;;14.38;9.55;;;17.40;93.80;;;;;;5051946;28;20039;-72
2023/10/02 06:31:42;;;;;;;15.50;8.82;;;17.30;93.90;;;;;;5057372;28;20041;-73
2023/10/02 06:34:11;;;;;;;19.30;10.13;;;17.40;93.70;;;;;;5046522;28;20036;-73
2023/10/02 06:36:47;;;;;;;17.13;9.73;;;17.50;93.60;;;;;;5052481;28;20166;-73
2023/10/02 06:39:21;;;;;;;17.30;10.07;;;17.40;93.60;;;;;;5043699;28;20167;-73
2023/10/02 06:41:47;;;;;;;15.82;9.65;;;17.50;93.50;;;;;;5055220;28;20028;-73
2023/10/02 06:44:16;;;;;;;18.27;9.38;;;17.50;93.40;;;;;;5038479;28;20048;-72
2023/10/02 06:46:53;;;;;;;;;;;17.50;93.50;;;;;;5040925;28;20033;-72
2023/10/02 06:49:20;;;;;;;19.95;9.25;;;17.60;93.30;;;;;;5025729;28;19959;-72
2023/10/02 06:51:49;;;;;;;13.50;8.82;;;17.70;93.00;;;;;;5037542;28;20097;-74
2023/10/02 06:54:18;;;;;;;20.33;8.48;;;17.80;92.70;;;;;;5043330;28;20165;-73
2023/10/02 06:56:44;;;;;;;15.80;8.23;;;17.80;92.80;;;;;;5049148;28;20032;-73
2023/10/02 06:59:09;;;;;;;14.77;7.55;;;18.00;92.60;;;;;;5045272;28;20324;-73
2023/10/02 07:01:35;;;;;;;16.48;8.77;;;18.10;92.30;;;;;;5042767;28;20112;-73
2023/10/02 07:04:09;;;;;;;18.05;8.20;;;18.20;92.10;;;;;;5047710;28;20476;-73
2023/10/02 07:06:42;;;;;;;11.50;7.63;;;18.30;91.80;;;;;;5032792;28;20139;-72
2023/10/02 07:09:11;;;;;;;16.75;8.30;;;18.40;91.50;;;;;;5037233;28;20028;-71
2023/10/02 07:11:39;;;;;;;14.05;7.28;;;18.50;91.40;;;;;;5038353;28;20043;-72
2023/10/02 07:14:06;;;;;;;14.68;7.00;;;18.70;91.10;;;;;;5055210;28;20744;-73
2023/10/02 07:16:33;;;;;;;10.32;6.65;;;18.80;90.70;;;;;;5040320;28;20076;-73
2023/10/02 07:18:59;;;;;;;11.77;6.65;;;19.00;90.40;;;;;;5050160;28;20041;-73
2023/10/02 07:21:27;;;;;;;9.90;5.10;;;19.10;90.10;;;;;;5044354;28;20036;-71
2023/10/02 07:23:53;;;;;;;13.25;5.30;;;19.20;89.80;;;;;;5050786;28;20036;-72
2023/10/02 07:26:20;;;;;;;11.23;5.18;;;19.20;89.60;;;;;;5031382;28;20192;-71
2023/10/02 07:28:50;;;;;;;10.05;4.93;;;19.30;89.10;;;;;;5046024;28;20093;-71
2023/10/02 07:31:19;;;;;;;8.57;5.13;;;19.40;88.90;;;;;;5020626;28;20048;-73
2023/10/02 07:33:44;;;;;;;11.20;4.40;;;19.60;88.10;;;;;;5048434;28;20307;-72
2023/10/02 07:36:14;;;;;;;5.72;4.28;;;19.70;87.50;;;;;;5026239;28;21612;-73
2023/10/02 07:38:42;;;;;;;11.27;5.03;;;19.80;87.30;;;;;;5042664;28;20055;-73
2023/10/02 07:41:16;;;;;;;9.95;4.93;;;19.70;86.50;;;;;;5030237;28;20024;-73
2023/10/02 07:43:42;;;;;;;8.45;4.68;;;19.60;87.90;;;;;;5045062;28;20245;-73
2023/10/02 07:46:15;;;;;;;11.23;4.15;;;19.80;87.00;;;;;;5035400;28;20637;-73
2023/10/02 07:48:43;;;;;;;15.55;4.13;;;20.00;85.00;;;;;;5045536;28;20032;-74
2023/10/02 07:51:09;;;;;;;10.45;5.00;;;20.10;84.20;;;;;;5036263;28;20622;-73
2023/10/02 07:53:39;;;;;;;9.02;4.50;;;20.30;84.20;;;;;;5047774;28;20033;-74
2023/10/02 07:56:07;;;;;;;11.05;4.60;;;20.30;83.30;;;;;;5031634;28;20714;-73
2023/10/02 07:58:35;;;;;;;10.45;5.22;;;20.50;82.60;;;;;;5040024;28;20025;-72
2023/10/02 08:01:11;;;;;;;8.80;4.18;;;20.60;82.20;;;;;;5051328;28;20028;-75
2023/10/02 08:03:49;;;;;;;11.00;4.90;;;20.60;82.70;;;;;;5040471;28;20042;-73
2023/10/02 08:06:33;;;;;;;8.88;4.43;;;20.80;81.40;;;;;;5045488;28;20024;-74
2023/10/02 08:10:05;;;;;;;8.95;4.90;;;21.00;80.70;;;;;;5035494;28;20124;-74
2023/10/02 08:11:50;;;;;;;8.18;4.18;;;20.90;80.60;;;;;;5040307;28;20484;-73
2023/10/02 08:14:48;;;;;;;7.25;4.47;;;20.80;81.50;;;;;;5047936;28;20039;-72
2023/10/02 08:17:17;;;;;;;8.77;5.03;;;20.70;81.80;;;;;;5025995;28;20736;-72
2023/10/02 08:19:54;;;;;;;11.60;4.95;;;19.90;84.00;;;;;;5050403;28;20068;-72
2023/10/02 08:22:20;;;;;;;10.52;4.53;;;19.80;85.70;;;;;;5033424;28;20037;-72
2023/10/02 08:24:46;;;;;;;12.60;4.25;;;20.10;84.90;;;;;;5054781;28;20051;-73
2023/10/02 08:27:15;;;;;;;8.30;3.92;;;20.40;82.10;;;;;;5038012;28;20037;-73
2023/10/02 08:29:41;;;;;;;10.10;4.25;;;20.50;81.60;;;;;;5051237;28;20033;-73
2023/10/02 08:32:07;;;;;;;16.80;4.43;;;20.70;82.50;;;;;;5048157;28;20029;-72
2023/10/02 08:34:32;;;;;;;7.88;3.88;;;20.70;82.20;;;;;;5040604;28;20140;-73
2023/10/02 08:37:14;;;;;;;10.73;4.03;;;20.70;81.00;;;;;;5047299;28;20503;-73
2023/10/02 08:39:41;;;;;;;7.40;3.20;;;20.80;81.60;;;;;;5023864;28;20753;-72
2023/10/02 08:42:11;;;;;;;8.43;3.28;;;20.80;81.00;;;;;;5041280;28;20028;-73
2023/10/02 08:44:40;;;;;;;6.28;3.03;;;20.30;83.00;;;;;;5037393;28;20589;-73
2023/10/02 08:47:07;;;;;;;7.78;3.45;;;20.30;84.00;;;;;;5053917;28;20035;-73
2023/10/02 08:49:35;;;;;;;11.38;4.07;;;20.40;82.20;;;;;;5034322;28;20496;-73
2023/10/02 08:52:04;;;;;;;9.70;3.60;;;20.70;81.00;;;;;;5050962;28;20191;-72
2023/10/02 08:54:31;;;;;;;11.43;3.40;;;20.90;80.20;;;;;;5038211;28;20036;-72
2023/10/02 08:57:06;;;;;;;7.07;2.88;;;20.50;82.10;;;;;;5044462;28;20400;-75
2023/10/02 08:59:41;;;;;;;13.82;2.70;;;21.10;80.90;;;;;;5042562;28;20124;-76
2023/10/02 09:02:15;;;;;;;9.45;2.70;;;21.60;78.40;;;;;;5047942;28;20044;-73
2023/10/02 09:04:51;;;;;;;5.75;2.35;;;21.30;79.00;;;;;;5037889;28;20469;-78
2023/10/02 09:07:44;;;;;;;5.00;2.20;;;21.40;79.20;;;;;;5047441;28;20451;-73
2023/10/02 09:10:18;;;;;;;4.80;2.20;;;21.60;76.70;;;;;;5027842;28;21140;-73
2023/10/02 09:12:51;;;;;;;6.90;2.42;;;21.10;77.90;;;;;;5053481;28;20052;-73
2023/10/02 09:15:35;;;;;;;4.80;2.28;;;21.20;78.00;;;;;;5039396;28;20531;-73
2023/10/02 09:18:19;;;;;;;9.63;2.17;;;20.90;78.80;;;;;;5044960;28;20399;-73
2023/10/02 09:20:53;;;;;;;7.90;2.60;;;20.80;79.50;;;;;;5043174;28;20056;-73
2023/10/02 09:23:23;;;;;;;4.30;2.42;;;21.00;79.40;;;;;;5048494;28;20078;-72
2023/10/02 09:26:38;;;;;;;11.93;2.83;;;20.60;80.10;;;;;;5036972;28;20082;-72
2023/10/02 09:29:06;;;;;;;12.05;2.75;;;20.80;79.80;;;;;;5049062;28;20028;-73
2023/10/02 09:31:35;;;;;;;8.15;2.42;;;20.90;80.40;;;;;;5045499;28;20043;-73
2023/10/02 09:34:10;;;;;;;4.07;2.15;;;21.30;78.00;;;;;;5053344;28;20059;-74
2023/10/02 09:36:47;;;;;;;7.25;2.80;;;21.70;77.90;;;;;;5041110;28;20051;-73
2023/10/02 09:39:46;;;;;;;6.30;2.40;;;21.90;76.20;;;;;;5047460;28;20036;-72
2023/10/02 09:42:06;;;;;;;7.07;2.47;;;21.40;77.00;;;;;;5049623;28;20439;-74
2023/10/02 09:44:40;;;;;;;6.57;2.53;;;21.80;76.80;;;;;;5057789;28;20027;-76
2023/10/02 09:47:07;;;;;;;5.88;2.38;;;22.30;74.50;;;;;;5064290;28;20032;-74
2023/10/02 09:49:39;;;;;;;5.97;2.20;;;22.30;73.90;;;;;;5068171;28;21331;-75
2023/10/02 09:52:10;;;;;;;7.30;2.30;;;22.70;72.80;;;;;;5043946;28;20032;-74
2023/10/02 09:55:12;;;;;;;7.85;2.72;;;22.30;72.90;;;;;;5061670;28;20035;-74
2023/10/02 09:57:49;;;;;;;4.65;2.50;;;22.50;72.90;;;;;;5054443;28;20028;-75
2023/10/02 10:00:49;;;;;;;6.68;2.50;;;22.20;73.80;;;;;;5056309;28;20036;-73
2023/10/02 10:03:22;;;;;;;8.95;2.70;;;22.10;74.50;;;;;;5050887;28;20579;-72
2023/10/02 10:06:15;;;;;;;7.28;2.22;;;22.80;72.60;;;;;;5044218;28;20043;-71
2023/10/02 10:09:25;;;;;;;5.30;2.40;;;22.00;74.50;;;;;;5056957;28;20035;-74
2023/10/02 10:12:17;;;;;;;5.75;2.30;;;22.50;73.20;;;;;;5049326;28;20847;-73
2023/10/02 10:14:36;;;;;;;6.05;2.40;;;23.00;71.80;;;;;;5054305;28;20028;-72
2023/10/02 10:17:12;;;;;;;7.00;2.47;;;22.90;72.00;;;;;;5037735;28;20036;-73
2023/10/02 10:19:41;;;;;;;5.40;2.08;;;23.10;71.00;;;;;;5056581;28;20036;-73
2023/10/02 10:22:50;;;;;;;7.25;2.78;;;22.80;71.30;;;;;;5041244;28;20063;-72
2023/10/02 10:25:37;;;;;;;8.45;2.40;;;22.00;74.10;;;;;;5048671;28;20047;-72
2023/10/02 10:30:33;;;;;;;8.70;2.63;;;21.30;77.30;;;;;;5054929;28;20043;-73
2023/10/02 10:33:20;;;;;;;8.05;3.25;;;21.00;79.30;;;;;;5039466;28;21263;-73
2023/10/02 10:36:09;;;;;;;9.05;4.05;;;20.80;80.70;;;;;;5044963;28;20036;-73
2023/10/02 10:38:42;;;;;;;12.25;4.20;;;20.80;82.70;;;;;;5043574;28;20042;-74
2023/10/02 10:41:09;;;;;;;9.90;4.20;;;20.70;82.90;;;;;;5045296;28;20042;-72
2023/10/02 10:43:44;;;;;;;13.77;4.80;;;20.60;82.90;;;;;;5040513;28;21031;-76
2023/10/02 10:46:17;;;;;;;15.77;4.50;;;20.70;83.10;;;;;;5049944;28;20158;-73
2023/10/02 10:48:48;;;;;;;12.25;5.07;;;20.90;82.10;;;;;;5040361;28;20778;-71
2023/10/02 10:51:21;;;;;;;12.63;5.75;;;21.10;81.50;;;;;;5048974;28;20028;-71
2023/10/02 10:53:52;;;;;;;15.38;4.93;;;21.10;81.40;;;;;;5038849;28;20074;-72
2023/10/02 10:56:19;;;;;;;13.98;5.18;;;21.00;81.60;;;;;;5043775;28;20033;-71
2023/10/02 10:58:46;;;;;;;12.63;5.25;;;21.00;81.30;;;;;;5039554;28;20032;-75
2023/10/02 11:01:13;;;;;;;12.88;4.68;;;20.90;82.50;;;;;;5049802;28;21673;-72
2023/10/02 11:03:41;;;;;;;11.18;3.90;;;20.80;82.10;;;;;;5030010;28;20675;-72
2023/10/02 11:06:09;;;;;;;11.43;3.83;;;20.70;82.60;;;;;;5046264;28;20150;-72
2023/10/02 11:08:37;;;;;;;9.43;3.80;;;20.70;82.60;;;;;;5033230;28;20104;-72
2023/10/02 11:11:11;;;;;;;11.35;4.63;;;21.00;81.90;;;;;;5042897;28;20044;-72
2023/10/02 11:13:50;;;;;;;13.35;5.05;;;20.90;81.80;;;;;;5036987;28;20622;-71
2023/10/02 11:16:34;;;;;;;12.80;4.70;;;21.00;81.70;;;;;;5043824;28;21060;-71
2023/10/02 11:19:25;;;;;;;8.60;5.05;;;21.60;79.70;;;;;;5038226;28;20399;-73
2023/10/02 11:22:26;;;;;;;12.57;4.70;;;21.80;78.50;;;;;;5053567;28;20361;-72
2023/10/02 11:24:53;;;;;;;10.55;5.47;;;21.30;80.80;;;;;;5031111;28;20589;-76
2023/10/02 11:27:20;;;;;;;16.45;6.30;;;20.80;81.80;;;;;;5047559;28;20031;-72
2023/10/02 11:30:03;;;;;;;10.88;6.03;;;21.10;80.50;;;;;;5032593;28;20071;-70
2023/10/02 11:32:53;;;;;;;12.93;6.15;;;21.00;81.20;;;;;;5060100;28;20137;-79
2023/10/02 11:35:19;;;;;;;12.13;5.63;;;20.60;83.20;;;;;;5043777;28;20572;-72
2023/10/02 11:37:47;;;;;;;18.65;6.03;;;20.80;82.80;;;;;;5051449;28;20577;-72
2023/10/02 11:40:13;;;;;;;15.23;6.22;;;20.70;83.20;;;;;;5041760;28;20042;-75
2023/10/02 11:42:40;;;;;;;16.13;6.10;;;20.80;83.00;;;;;;5052832;28;20512;-72
2023/10/02 11:45:07;;;;;;;21.55;6.70;;;21.00;82.60;;;;;;5039588;28;20239;-73
2023/10/02 11:47:32;;;;;;;21.88;6.82;;;21.20;82.50;;;;;;5054738;28;20060;-74
2023/10/02 11:49:59;;;;;;;13.80;6.97;;;21.40;80.30;;;;;;5042647;28;20145;-75
2023/10/02 11:52:25;;;;;;;17.73;7.82;;;21.30;80.20;;;;;;5054275;28;20119;-75
2023/10/02 11:54:51;;;;;;;17.58;6.85;;;21.20;80.90;;;;;;5050093;28;20036;-74
2023/10/02 11:57:16;;;;;;;17.05;7.78;;;21.00;82.30;;;;;;5056980;28;20027;-72
2023/10/02 11:59:45;;;;;;;16.30;7.28;;;21.10;82.00;;;;;;5049026;28;20036;-73
2023/10/02 12:02:11;;;;;;;16.30;8.95;;;21.10;81.30;;;;;;5056153;28;20032;-73
2023/10/02 12:04:38;;;;;;;16.08;7.57;;;20.80;82.60;;;;;;5039779;28;20666;-73
2023/10/02 12:07:04;;;;;;;16.33;8.05;;;20.80;84.20;;;;;;5059591;28;20048;-73
2023/10/02 12:09:32;;;;;;;16.00;7.63;;;20.70;84.10;;;;;;5038494;28;20134;-74
2023/10/02 12:11:58;;;;;;;17.80;8.07;;;20.80;83.80;;;;;;5053403;28;20035;-75
2023/10/02 12:14:27;;;;;;;23.67;8.55;;;21.20;82.60;;;;;;5056456;28;20431;-75
2023/10/02 12:16:57;;;;;;;18.17;8.43;;;21.60;80.90;;;;;;5040943;28;20061;-73
2023/10/02 12:19:26;;;;;;;16.20;7.70;;;21.80;79.20;;;;;;5056462;28;20393;-74
2023/10/02 12:21:52;;;;;;;14.35;7.35;;;22.20;77.40;;;;;;5044878;28;20131;-72
2023/10/02 12:24:19;;;;;;;13.57;6.82;;;22.30;76.70;;;;;;5052254;28;20028;-73
2023/10/02 12:26:46;;;;;;;13.75;7.20;;;22.20;77.00;;;;;;5045431;28;20032;-73
2023/10/02 12:29:12;;;;;;;12.40;6.38;;;22.30;76.00;;;;;;5060591;28;20066;-73
2023/10/02 12:31:38;;;;;;;12.05;5.97;;;22.10;76.60;;;;;;5037681;28;20046;-74
2023/10/02 12:34:05;;;;;;;17.73;7.55;;;21.90;77.20;;;;;;5041879;28;20024;-72
2023/10/02 12:36:31;;;;;;;14.02;6.78;;;22.10;76.80;;;;;;5041762;28;20179;-76
2023/10/02 12:38:57;;;;;;;13.23;5.93;;;22.40;75.40;;;;;;5062396;28;20020;-78
2023/10/02 12:41:25;;;;;;;14.77;6.50;;;22.80;73.60;;;;;;5054202;28;20039;-77
2023/10/02 12:44:02;;;;;;;17.53;5.90;;;22.50;73.50;;;;;;5055198;28;20025;-72
2023/10/02 12:46:29;;;;;;;14.88;6.43;;;22.20;75.20;;;;;;5043081;28;20039;-72
2023/10/02 12:48:57;;;;;;;12.02;6.15;;;21.90;76.20;;;;;;5059447;28;20718;-75
2023/10/02 12:51:24;;;;;;;10.93;5.78;;;22.40;74.50;;;;;;5040811;28;20293;-73
2023/10/02 12:53:50;;;;;;;16.30;6.28;;;22.30;74.60;;;;;;5059611;28;20713;-72
2023/10/02 12:56:21;;;;;;;15.38;6.43;;;22.00;75.80;;;;;;5049082;28;20203;-75
2023/10/02 12:58:48;;;;;;;13.05;6.10;;;21.90;75.90;;;;;;5058145;28;20043;-72
2023/10/02 13:01:17;;;;;;;13.73;5.60;;;21.80;77.00;;;;;;5043342;28;20499;-73
2023/10/02 13:03:43;;;;;;;15.93;6.20;;;21.90;77.30;;;;;;5045606;28;20041;-74
2023/10/02 13:06:12;;;;;;;16.48;6.78;;;22.00;77.10;;;;;;5051051;28;20028;-76